createdAt,value
2018-09-08T00:01:40.279Z,3.27
2018-09-08T00:04:08.821Z,3.80
2018-09-08T00:06:37.319Z,3.70
2018-09-08T00:09:08.771Z,4.10
2018-09-08T00:11:37.538Z,3.77
2018-09-08T00:14:06.226Z,3.90
2018-09-08T00:16:39.942Z,3.70
2018-09-08T00:19:13.631Z,3.77
2018-09-08T00:21:47.445Z,3.87
2018-09-08T00:24:21.266Z,3.40
2018-09-08T00:26:48.988Z,3.40
2018-09-08T00:29:22.850Z,3.43
2018-09-08T00:31:51.422Z,3.23
2018-09-08T00:34:19.934Z,4.27
2018-09-08T00:36:48.456Z,4.07
2018-09-08T00:39:16.983Z,4.07
2018-09-08T00:41:45.518Z,4.07
2018-09-08T00:44:14.055Z,3.50
2018-09-08T00:46:42.573Z,4.20
2018-09-08T00:49:11.131Z,4.20
2018-09-08T00:51:39.646Z,3.87
2018-09-08T00:54:08.426Z,4.07
2018-09-08T00:56:36.944Z,3.50
2018-09-08T00:59:06.154Z,3.77
2018-09-08T01:01:36.057Z,3.87
2018-09-08T01:04:04.736Z,4.10
2018-09-08T01:06:33.254Z,3.70
2018-09-08T01:09:01.786Z,4.37
2018-09-08T01:11:30.286Z,4.33
2018-09-08T01:13:58.785Z,4.13
2018-09-08T01:16:27.306Z,4.73
2018-09-08T01:18:55.814Z,4.60
2018-09-08T01:21:24.399Z,4.07
2018-09-08T01:23:54.031Z,4.17
2018-09-08T01:26:23.339Z,4.80
2018-09-08T01:28:52.343Z,4.40
2018-09-08T01:31:21.452Z,4.37
2018-09-08T01:33:50.014Z,4.20
2018-09-08T01:36:18.550Z,4.30
2018-09-08T01:38:47.215Z,4.53
2018-09-08T01:41:15.765Z,4.83
2018-09-08T01:43:44.293Z,4.87
2018-09-08T01:46:12.830Z,4.67
2018-09-08T01:48:41.341Z,4.70
2018-09-08T01:51:09.878Z,4.40
2018-09-08T01:53:38.390Z,4.83
2018-09-08T01:56:07.142Z,4.83
2018-09-08T01:58:35.689Z,4.73
2018-09-08T02:01:04.278Z,4.70
2018-09-08T02:03:32.816Z,5.00
2018-09-08T02:06:01.375Z,5.17
2018-09-08T02:08:29.882Z,5.23
2018-09-08T02:10:58.657Z,5.50
2018-09-08T02:13:27.348Z,5.20
2018-09-08T02:15:55.965Z,5.03
2018-09-08T02:18:24.622Z,4.77
2018-09-08T02:20:53.434Z,5.13
2018-09-08T02:23:22.083Z,5.10
2018-09-08T02:25:50.810Z,4.83
2018-09-08T02:28:19.491Z,4.90
2018-09-08T02:30:48.292Z,4.90
2018-09-08T02:33:17.023Z,4.83
2018-09-08T02:35:45.631Z,4.80
2018-09-08T02:38:14.433Z,4.87
2018-09-08T02:40:43.200Z,4.77
2018-09-08T02:43:11.834Z,5.43
2018-09-08T02:45:40.498Z,4.83
2018-09-08T02:48:09.285Z,5.37
2018-09-08T02:50:38.736Z,4.87
2018-09-08T02:53:08.254Z,5.00
2018-09-08T02:55:36.073Z,4.90
2018-09-08T02:58:03.571Z,5.03
2018-09-08T03:00:31.471Z,5.00
2018-09-08T03:02:58.827Z,4.77
2018-09-08T03:05:26.223Z,5.03
2018-09-08T03:07:53.575Z,5.00
2018-09-08T03:10:21.598Z,5.40
2018-09-08T03:12:48.966Z,4.80
2018-09-08T03:15:16.350Z,5.00
2018-09-08T03:17:43.734Z,5.73
2018-09-08T03:20:11.119Z,5.03
2018-09-08T03:22:38.461Z,5.10
2018-09-08T03:25:05.835Z,5.30
2018-09-08T03:27:33.223Z,4.80
2018-09-08T03:30:00.575Z,5.00
2018-09-08T03:32:27.954Z,5.20
2018-09-08T03:34:55.327Z,5.03
2018-09-08T03:37:22.707Z,4.60
2018-09-08T03:39:50.064Z,5.10
2018-09-08T03:42:17.460Z,4.80
2018-09-08T03:44:44.805Z,4.70
2018-09-08T03:47:12.186Z,4.57
2018-09-08T03:49:39.585Z,4.53
2018-09-08T03:52:06.946Z,4.43
2018-09-08T03:54:34.335Z,4.50
2018-09-08T03:57:01.728Z,5.27
2018-09-08T03:59:29.092Z,4.97
2018-09-08T04:01:56.462Z,5.03
2018-09-08T04:04:24.987Z,5.17
2018-09-08T04:06:53.506Z,4.80
2018-09-08T04:09:22.022Z,5.40
2018-09-08T04:11:50.550Z,4.80
2018-09-08T04:14:19.098Z,4.83
2018-09-08T04:16:47.804Z,4.93
2018-09-08T04:19:16.296Z,4.87
2018-09-08T04:21:44.834Z,5.17
2018-09-08T04:24:13.331Z,5.00
2018-09-08T04:26:41.886Z,5.40
2018-09-08T04:29:10.426Z,5.17
2018-09-08T04:31:38.955Z,5.20
2018-09-08T04:34:07.484Z,5.23
2018-09-08T04:36:36.042Z,5.63
2018-09-08T04:39:06.678Z,5.00
2018-09-08T04:41:35.240Z,5.00
2018-09-08T04:44:03.812Z,5.30
2018-09-08T04:46:34.416Z,4.70
2018-09-08T04:49:04.443Z,5.20
2018-09-08T04:51:34.447Z,4.90
2018-09-08T04:54:05.955Z,4.47
2018-09-08T04:56:34.570Z,5.20
2018-09-08T04:59:03.817Z,4.80
2018-09-08T05:01:32.382Z,5.50
2018-09-08T05:04:02.031Z,5.23
2018-09-08T05:06:30.673Z,5.50
2018-09-08T05:08:59.237Z,4.90
2018-09-08T05:11:28.915Z,5.30
2018-09-08T05:13:57.478Z,5.47
2018-09-08T05:16:27.630Z,5.70
2018-09-08T05:18:56.164Z,5.47
2018-09-08T05:21:24.713Z,4.87
2018-09-08T05:23:53.236Z,5.13
2018-09-08T05:26:21.878Z,5.30
2018-09-08T05:28:51.377Z,4.70
2018-09-08T05:31:19.967Z,5.30
2018-09-08T05:33:48.515Z,5.30
2018-09-08T05:36:17.175Z,5.00
2018-09-08T05:38:45.696Z,5.00
2018-09-08T05:41:14.351Z,4.93
2018-09-08T05:43:43.971Z,4.97
2018-09-08T05:46:12.596Z,4.90
2018-09-08T05:48:41.110Z,5.00
2018-09-08T05:51:14.587Z,5.23
2018-09-08T05:53:43.894Z,5.07
2018-09-08T05:56:16.654Z,4.93
2018-09-08T05:58:45.651Z,4.90
2018-09-08T06:01:15.680Z,5.00
2018-09-08T06:03:44.263Z,4.77
2018-09-08T06:06:15.975Z,5.10
2018-09-08T06:08:44.667Z,4.90
2018-09-08T06:11:13.266Z,4.87
2018-09-08T06:13:43.107Z,4.50
2018-09-08T06:16:11.613Z,5.33
2018-09-08T06:18:42.698Z,5.00
2018-09-08T06:21:14.038Z,4.77
2018-09-08T06:23:42.718Z,4.70
2018-09-08T06:26:11.273Z,4.53
2018-09-08T06:28:39.911Z,4.07
2018-09-08T06:31:08.360Z,4.97
2018-09-08T06:33:37.473Z,4.27
2018-09-08T06:36:07.042Z,4.53
2018-09-08T06:38:36.021Z,4.57
2018-09-08T06:41:04.639Z,4.30
2018-09-08T06:43:33.187Z,4.10
2018-09-08T06:46:01.738Z,4.03
2018-09-08T06:48:30.651Z,3.70
2018-09-08T06:50:59.211Z,3.60
2018-09-08T06:53:27.807Z,3.70
2018-09-08T06:55:56.479Z,3.43
2018-09-08T06:58:25.046Z,3.97
2018-09-08T07:00:55.873Z,3.30
2018-09-08T07:03:24.554Z,3.33
2018-09-08T07:05:53.046Z,3.03
2018-09-08T07:08:21.617Z,2.90
2018-09-08T07:10:51.282Z,3.00
2018-09-08T07:13:19.909Z,2.70
2018-09-08T07:15:48.578Z,2.97
2018-09-08T07:18:19.542Z,2.80
2018-09-08T07:20:48.155Z,2.60
2018-09-08T07:23:16.718Z,2.30
2018-09-08T07:25:45.455Z,2.80
2018-09-08T07:28:15.492Z,2.30
2018-09-08T07:30:45.457Z,2.20
2018-09-08T07:33:14.145Z,2.20
2018-09-08T07:35:42.649Z,2.00
2018-09-08T07:38:11.298Z,2.30
2018-09-08T07:40:39.848Z,2.33
2018-09-08T07:43:08.417Z,2.43
2018-09-08T07:45:36.954Z,2.57
2018-09-08T07:48:05.594Z,2.30
2018-09-08T07:50:34.126Z,2.10
2018-09-08T07:53:02.660Z,1.87
2018-09-08T07:55:31.182Z,2.00
2018-09-08T07:57:59.735Z,1.83
2018-09-08T08:00:28.292Z,1.90
2018-09-08T08:02:56.830Z,1.90
2018-09-08T08:05:25.378Z,1.90
2018-09-08T08:07:53.888Z,1.70
2018-09-08T08:10:22.404Z,1.90
2018-09-08T08:12:50.950Z,1.70
2018-09-08T08:15:20.224Z,1.63
2018-09-08T08:17:48.738Z,1.93
2018-09-08T08:20:17.263Z,1.50
2018-09-08T08:22:45.869Z,1.73
2018-09-08T08:25:14.463Z,1.70
2018-09-08T08:27:43.786Z,1.80
2018-09-08T08:30:12.355Z,1.33
2018-09-08T08:32:40.912Z,1.70
2018-09-08T08:35:09.485Z,1.50
2018-09-08T08:37:38.086Z,1.53
2018-09-08T08:40:06.731Z,1.60
2018-09-08T08:42:35.270Z,1.53
2018-09-08T08:45:03.911Z,1.70
2018-09-08T08:47:32.418Z,1.50
2018-09-08T08:50:12.045Z,1.40
2018-09-08T08:52:51.913Z,1.60
2018-09-08T08:55:20.438Z,1.43
2018-09-08T08:57:49.101Z,1.47
2018-09-08T09:00:17.638Z,1.57
2018-09-08T09:02:46.130Z,1.40
2018-09-08T09:05:14.666Z,1.40
2018-09-08T09:07:43.187Z,1.50
2018-09-08T09:10:11.782Z,1.40
2018-09-08T09:12:40.303Z,1.50
2018-09-08T09:15:09.290Z,1.63
2018-09-08T09:17:37.457Z,1.67
2018-09-08T09:20:17.459Z,1.63
2018-09-08T09:22:57.028Z,1.63
2018-09-08T09:25:25.653Z,1.50
2018-09-08T09:27:54.169Z,1.47
2018-09-08T09:30:22.954Z,1.50
2018-09-08T09:32:51.498Z,1.60
2018-09-08T09:35:21.410Z,1.50
2018-09-08T09:37:49.833Z,1.60
2018-09-08T09:40:20.357Z,1.70
2018-09-08T09:42:48.871Z,1.60
2018-09-08T09:45:17.415Z,1.30
2018-09-08T09:47:45.945Z,1.40
2018-09-08T09:50:14.498Z,1.73
2018-09-08T09:52:43.026Z,1.40
2018-09-08T09:55:11.573Z,1.57
2018-09-08T09:57:40.571Z,1.50
2018-09-08T10:00:10.114Z,1.23
2018-09-08T10:02:43.938Z,1.50
2018-09-08T10:05:16.287Z,1.43
2018-09-08T10:07:44.897Z,1.60
2018-09-08T10:10:14.989Z,1.63
2018-09-08T10:12:43.515Z,1.70
2018-09-08T10:15:12.080Z,1.40
2018-09-08T10:17:41.477Z,1.70
2018-09-08T10:20:11.935Z,1.50
2018-09-08T10:22:40.659Z,1.60
2018-09-08T10:25:12.672Z,1.40
2018-09-08T10:27:41.498Z,1.70
2018-09-08T10:30:11.453Z,1.50
2018-09-08T10:32:41.279Z,1.63
2018-09-08T10:35:11.562Z,1.57
2018-09-08T10:37:40.133Z,1.65
2018-09-08T10:40:10.258Z,1.37
2018-09-08T10:42:38.866Z,1.40
2018-09-08T10:45:08.074Z,1.40
2018-09-08T10:47:37.609Z,1.57
2018-09-08T10:50:07.035Z,1.50
2018-09-08T10:52:40.770Z,1.53
2018-09-08T10:55:11.392Z,1.47
2018-09-08T10:57:43.526Z,1.32
2018-09-08T11:00:13.655Z,1.30
2018-09-08T11:02:45.947Z,1.40
2018-09-08T11:05:15.808Z,1.47
2018-09-08T11:07:46.956Z,1.60
2018-09-08T11:10:15.805Z,2.40
2018-09-08T11:12:48.101Z,1.50
2018-09-08T11:15:17.201Z,1.62
2018-09-08T11:17:47.619Z,1.30
2018-09-08T11:20:17.148Z,1.45
2018-09-08T11:22:46.261Z,1.25
2018-09-08T11:25:15.267Z,1.40
2018-09-08T11:27:44.353Z,1.35
2018-09-08T11:30:13.554Z,1.50
2018-09-08T11:32:47.343Z,1.30
2018-09-08T11:35:23.821Z,1.30
2018-09-08T11:37:53.999Z,1.45
2018-09-08T11:40:32.400Z,1.45
2018-09-08T11:43:02.755Z,1.30
2018-09-08T11:45:31.914Z,1.50
2018-09-08T11:48:00.745Z,1.40
2018-09-08T11:50:29.269Z,1.55
2018-09-08T11:52:57.812Z,1.42
2018-09-08T11:55:26.391Z,4.72
2018-09-08T11:57:54.936Z,1.35
2018-09-08T12:00:23.980Z,1.42
2018-09-08T12:02:52.522Z,1.50
2018-09-08T12:05:21.075Z,2.08
2018-09-08T12:07:49.889Z,1.30
2018-09-08T12:10:18.479Z,1.67
2018-09-08T12:12:47.025Z,1.55
2018-09-08T12:15:15.570Z,1.10
2018-09-08T12:17:46.791Z,1.27
2018-09-08T12:20:15.335Z,1.30
2018-09-08T12:22:43.971Z,1.20
2018-09-08T12:25:12.546Z,1.40
2018-09-08T12:27:41.126Z,1.30
2018-09-08T12:30:09.751Z,1.40
2018-09-08T12:32:38.314Z,1.40
2018-09-08T12:35:06.896Z,1.42
2018-09-08T12:37:35.414Z,1.30
2018-09-08T12:40:04.101Z,1.40
2018-09-08T12:42:32.638Z,1.52
2018-09-08T12:45:01.171Z,1.32
2018-09-08T12:47:29.847Z,1.30
2018-09-08T12:49:59.010Z,1.10
2018-09-08T12:52:29.407Z,1.30
2018-09-08T12:54:57.953Z,1.20
2018-09-08T12:57:27.041Z,1.40
2018-09-08T12:59:57.236Z,1.30
2018-09-08T13:02:25.796Z,1.35
2018-09-08T13:04:54.330Z,1.22
2018-09-08T13:07:23.314Z,1.35
2018-09-08T13:09:51.912Z,1.30
2018-09-08T13:12:20.887Z,1.10
2018-09-08T13:14:49.412Z,1.20
2018-09-08T13:17:17.963Z,1.22
2018-09-08T13:19:46.497Z,1.37
2018-09-08T13:22:15.075Z,1.20
2018-09-08T13:24:43.814Z,1.10
2018-09-08T13:27:12.397Z,1.37
2018-09-08T13:29:40.923Z,1.17
2018-09-08T13:32:09.504Z,1.57
2018-09-08T13:34:38.018Z,1.30
2018-09-08T13:37:06.578Z,1.30
2018-09-08T13:39:35.233Z,1.60
2018-09-08T13:42:03.735Z,1.57
2018-09-08T13:44:32.326Z,1.55
2018-09-08T13:47:00.995Z,1.30
2018-09-08T13:49:29.508Z,1.20
2018-09-08T13:51:58.051Z,1.30
2018-09-08T13:54:26.547Z,1.32
2018-09-08T13:56:55.091Z,1.20
2018-09-08T13:59:23.611Z,1.55
2018-09-08T14:01:52.133Z,1.40
2018-09-08T14:04:20.639Z,1.42
2018-09-08T14:06:49.199Z,1.35
2018-09-08T14:09:17.720Z,1.50
2018-09-08T14:11:46.944Z,1.57
2018-09-08T14:14:15.447Z,1.35
2018-09-08T14:16:43.987Z,1.35
2018-09-08T14:19:12.530Z,1.30
2018-09-08T14:21:41.063Z,1.40
2018-09-08T14:24:09.606Z,1.37
2018-09-08T14:26:38.156Z,1.60
2018-09-08T14:29:06.656Z,1.30
2018-09-08T14:31:35.244Z,1.30
2018-09-08T14:34:03.870Z,1.37
2018-09-08T14:36:32.438Z,1.47
2018-09-08T14:39:00.952Z,1.42
2018-09-08T14:41:29.483Z,1.42
2018-09-08T14:43:57.986Z,1.60
2018-09-08T14:46:26.541Z,1.37
2018-09-08T14:48:55.042Z,1.50
2018-09-08T14:51:23.595Z,1.50
2018-09-08T14:53:52.100Z,1.52
2018-09-08T14:56:20.618Z,1.40
2018-09-08T14:58:49.116Z,1.50
2018-09-08T15:01:17.642Z,1.60
2018-09-08T15:03:46.165Z,1.40
2018-09-08T15:06:16.588Z,1.62
2018-09-08T15:08:45.428Z,1.60
2018-09-08T15:11:16.887Z,1.42
2018-09-08T15:13:48.345Z,1.57
2018-09-08T15:16:18.435Z,1.50
2018-09-08T15:18:48.853Z,1.52
2018-09-08T15:21:18.567Z,1.40
2018-09-08T15:23:49.988Z,1.45
2018-09-08T15:26:19.113Z,1.70
2018-09-08T15:28:49.102Z,1.65
2018-09-08T15:31:18.651Z,1.35
2018-09-08T15:33:47.172Z,1.70
2018-09-08T15:36:15.715Z,1.80
2018-09-08T15:38:47.490Z,1.50
2018-09-08T15:41:23.070Z,1.62
2018-09-08T15:43:53.492Z,1.90
2018-09-08T15:46:27.634Z,1.40
2018-09-08T15:48:56.423Z,1.65
2018-09-08T15:51:25.559Z,1.62
2018-09-08T15:53:54.122Z,2.02
2018-09-08T15:56:22.701Z,2.58
2018-09-08T15:58:51.231Z,2.00
2018-09-08T16:01:19.761Z,1.57
2018-09-08T16:03:48.310Z,1.70
2018-09-08T16:06:20.792Z,1.50
2018-09-08T16:08:49.845Z,1.52
2018-09-08T16:11:18.364Z,1.70
2018-09-08T16:13:47.031Z,1.62
2018-09-08T16:16:15.643Z,1.60
2018-09-08T16:18:44.470Z,1.80
2018-09-08T16:21:13.043Z,1.60
2018-09-08T16:23:43.030Z,1.80
2018-09-08T16:26:12.463Z,2.02
2018-09-08T16:28:41.775Z,2.37
2018-09-08T16:31:11.305Z,1.60
2018-09-08T16:33:40.554Z,1.60
2018-09-08T16:36:09.042Z,2.20
2018-09-08T16:38:37.602Z,2.00
2018-09-08T16:41:06.287Z,1.92
2018-09-08T16:43:35.038Z,1.70
2018-09-08T16:46:03.883Z,2.02
2018-09-08T16:48:32.398Z,2.10
2018-09-08T16:51:00.915Z,1.70
2018-09-08T16:53:29.472Z,2.27
2018-09-08T16:55:57.966Z,2.00
2018-09-08T16:58:26.528Z,1.70
2018-09-08T17:00:55.045Z,1.85
2018-09-08T17:03:23.595Z,2.37
2018-09-08T17:05:52.139Z,2.10
2018-09-08T17:08:20.679Z,2.05
2018-09-08T17:10:50.145Z,2.00
2018-09-08T17:13:18.742Z,2.27
2018-09-08T17:15:47.603Z,2.02
2018-09-08T17:18:16.150Z,2.02
2018-09-08T17:20:45.299Z,1.75
2018-09-08T17:23:13.836Z,2.10
2018-09-08T17:25:42.359Z,2.05
2018-09-08T17:28:11.014Z,2.30
2018-09-08T17:30:39.487Z,2.08
2018-09-08T17:33:08.008Z,2.20
2018-09-08T17:35:36.572Z,2.00
2018-09-08T17:38:05.602Z,2.08
2018-09-08T17:40:34.120Z,1.80
2018-09-08T17:43:03.063Z,1.90
2018-09-08T17:45:31.631Z,2.08
2018-09-08T17:48:00.208Z,1.85
2018-09-08T17:50:28.768Z,2.00
2018-09-08T17:52:57.722Z,1.87
2018-09-08T17:55:26.619Z,1.92
2018-09-08T17:57:55.343Z,1.70
2018-09-08T18:00:23.864Z,1.72
2018-09-08T18:02:52.415Z,1.90
2018-09-08T18:05:20.919Z,1.77
2018-09-08T18:07:49.486Z,1.75
2018-09-08T18:10:18.040Z,2.10
2018-09-08T18:12:46.588Z,1.98
2018-09-08T18:15:15.932Z,1.98
2018-09-08T18:17:44.487Z,2.20
2018-09-08T18:20:14.043Z,2.37
2018-09-08T18:22:42.583Z,2.08
2018-09-08T18:25:11.354Z,2.20
2018-09-08T18:27:39.874Z,2.40
2018-09-08T18:30:08.412Z,2.77
2018-09-08T18:32:36.996Z,2.50
2018-09-08T18:35:05.722Z,2.30
2018-09-08T18:37:34.257Z,2.17
2018-09-08T18:40:03.326Z,2.02
2018-09-08T18:42:31.867Z,2.40
2018-09-08T18:45:00.403Z,2.98
2018-09-08T18:47:28.941Z,2.35
2018-09-08T18:49:57.471Z,2.90
2018-09-08T18:52:25.954Z,3.00
2018-09-08T18:54:55.347Z,2.52
2018-09-08T18:57:24.591Z,2.60
2018-09-08T18:59:53.174Z,2.40
2018-09-08T19:02:21.924Z,2.58
2018-09-08T19:04:50.466Z,2.00
2018-09-08T19:07:19.237Z,2.30
2018-09-08T19:09:51.973Z,2.70
2018-09-08T19:12:20.526Z,3.20
2018-09-08T19:14:54.196Z,4.95
2018-09-08T19:17:22.844Z,3.90
2018-09-08T19:19:55.656Z,3.80
2018-09-08T19:22:24.126Z,3.20
2018-09-08T19:24:54.791Z,3.15
2018-09-08T19:27:23.365Z,3.10
2018-09-08T19:29:51.963Z,2.92
2018-09-08T19:32:21.146Z,4.15
2018-09-08T19:35:57.056Z,4.03
2018-09-08T19:38:26.162Z,4.62
2018-09-08T19:40:55.465Z,3.52
2018-09-08T19:43:24.133Z,3.95
2018-09-08T19:45:52.751Z,6.67
2018-09-08T19:48:22.156Z,5.15
2018-09-08T19:50:51.877Z,5.45
2018-09-08T19:53:25.836Z,3.67
2018-09-08T19:55:56.106Z,3.70
2018-09-08T19:58:30.493Z,3.22
2018-09-08T20:01:02.324Z,3.70
2018-09-08T20:03:35.366Z,3.00
2018-09-08T20:06:04.493Z,3.30
2018-09-08T20:08:35.437Z,3.37
2018-09-08T20:11:04.242Z,2.90
2018-09-08T20:13:33.861Z,2.80
2018-09-08T20:16:02.709Z,2.67
2018-09-08T20:18:32.531Z,2.87
2018-09-08T20:21:01.500Z,3.10
2018-09-08T20:23:30.686Z,3.55
2018-09-08T20:25:59.276Z,4.47
2018-09-08T20:28:32.222Z,4.37
2018-09-08T20:31:11.049Z,4.10
2018-09-08T20:33:40.572Z,4.50
2018-09-08T20:36:12.432Z,4.80
2018-09-08T20:38:44.569Z,4.55
2018-09-08T20:41:14.713Z,3.85
2018-09-08T20:43:46.129Z,3.70
2018-09-08T20:46:19.854Z,3.27
2018-09-08T20:48:48.938Z,3.47
2018-09-08T20:51:18.187Z,2.97
2018-09-08T20:53:50.170Z,2.77
2018-09-08T20:56:24.283Z,2.60
2018-09-08T20:58:58.518Z,2.30
2018-09-08T21:01:27.920Z,2.70
2018-09-08T21:04:01.537Z,2.80
2018-09-08T21:06:30.959Z,3.03
2018-09-08T21:09:02.033Z,4.97
2018-09-08T21:11:31.070Z,4.43
2018-09-08T21:14:02.803Z,3.40
2018-09-08T21:16:34.632Z,3.40
2018-09-08T21:19:09.147Z,4.43
2018-09-08T21:21:44.197Z,3.40
2018-09-08T21:24:15.301Z,3.33
2018-09-08T21:26:43.935Z,3.40
2018-09-08T21:29:12.490Z,3.00
2018-09-08T21:31:43.274Z,3.30
2018-09-08T21:34:11.892Z,3.27
2018-09-08T21:36:41.391Z,3.10
2018-09-08T21:39:11.787Z,3.70
2018-09-08T21:41:41.092Z,3.60
2018-09-08T21:44:10.736Z,4.00
2018-09-08T21:46:40.674Z,3.43
2018-09-08T21:49:10.915Z,3.40
2018-09-08T21:51:39.466Z,3.20
2018-09-08T21:54:08.142Z,3.17
2018-09-08T21:56:36.714Z,3.57
